Time;durP1;ratioP1;P1;durP2;ratioP2;P2;SDS_P1;SDS_P2;PMS_P1;PMS_P2;Temp;Humidity;BMP_temperature;BMP_pressure;BME280_temperature;BME280_humidity;BME280_pressure;Samples;Min_cycle;Max_cycle;Signal;HPM_P1;HPM_P2
2021/10/20 00:01:24;;;;;;;3.80;3.70;;;15.90;99.90;;;;;;4908084;29;20452;-90
2021/10/20 00:03:53;;;;;;;3.97;3.77;;;18.20;99.90;;;;;;4912467;29;20728;-90
2021/10/20 00:06:23;;;;;;;2.93;2.83;;;14.20;99.90;;;;;;4913345;29;20191;-92
2021/10/20 00:08:51;;;;;;;3.57;3.47;;;17.10;99.90;;;;;;4912744;29;20563;-91
2021/10/20 00:11:21;;;;;;;3.67;3.47;;;16.60;99.90;;;;;;4911780;29;20489;-91
2021/10/20 00:13:47;;;;;;;4.43;4.03;;;16.00;99.40;;;;;;4910617;29;20806;-91
2021/10/20 00:16:14;;;;;;;4.17;3.80;;;15.90;99.50;;;;;;4913897;29;20437;-89
2021/10/20 00:18:45;;;;;;;4.20;4.10;;;18.60;99.90;;;;;;4910808;29;20417;-92
2021/10/20 00:21:11;;;;;;;5.80;3.53;;;17.20;99.90;;;;;;4911456;29;20473;-93
2021/10/20 00:23:38;;;;;;;4.23;4.03;;;15.70;99.90;;;;;;4912424;29;20829;-91
2021/10/20 00:26:04;;;;;;;3.67;3.57;;;15.80;99.60;;;;;;4914897;29;20481;-94
2021/10/20 00:28:30;;;;;;;3.40;3.20;;;15.60;99.90;;;;;;4910744;29;20417;-90
2021/10/20 00:30:56;;;;;;;6.23;3.73;;;16.50;99.90;;;;;;4911440;29;20423;-91
2021/10/20 00:33:24;;;;;;;4.57;4.20;;;15.80;99.50;;;;;;4912262;29;20176;-91
2021/10/20 00:35:50;;;;;;;4.53;4.33;;;;;;;;;;4913179;29;20183;-90
2021/10/20 00:38:16;;;;;;;4.20;4.10;;;;;;;;;;4909052;29;20480;-92
2021/10/20 00:40:42;;;;;;;4.43;4.07;;;;;;;;;;4910754;29;20516;-90
2021/10/20 00:43:11;;;;;;;5.00;4.67;;;;;;;;;;4909807;29;20422;-91
2021/10/20 00:45:37;;;;;;;4.63;4.20;;;;;;;;;;4911454;29;20460;-90
2021/10/20 00:48:03;;;;;;;5.27;4.87;;;15.90;99.20;;;;;;4910446;29;20519;-93
2021/10/20 00:50:30;;;;;;;4.20;4.00;;;15.80;99.90;;;;;;4913242;29;20405;-93
2021/10/20 00:52:58;;;;;;;9.50;4.10;;;16.00;99.90;;;;;;4913156;29;20428;-91
2021/10/20 00:55:35;;;;;;;4.47;4.17;;;14.50;99.90;;;;;;4908024;29;20432;-92
2021/10/20 00:58:05;;;;;;;4.27;4.13;;;17.30;99.90;;;;;;4913269;29;20435;-92
2021/10/20 01:00:39;;;;;;;6.83;4.03;;;17.40;99.90;;;;;;4914984;29;20842;-92
2021/10/20 01:03:05;;;;;;;13.40;5.40;;;;;;;;;;4912485;29;20928;-92
2021/10/20 01:05:36;;;;;;;4.47;4.27;;;;;;;;;;4910573;29;20428;-92
2021/10/20 01:08:02;;;;;;;5.20;4.80;;;;;;;;;;4911744;29;20443;-92
2021/10/20 01:10:29;;;;;;;4.30;4.00;;;;;;;;;;4915221;29;20394;-92
2021/10/20 01:12:56;;;;;;;5.17;4.77;;;15.80;98.70;;;;;;4912213;29;20417;-92
2021/10/20 01:15:25;;;;;;;4.23;4.03;;;16.60;99.90;;;;;;4917832;29;20424;-93
2021/10/20 01:17:51;;;;;;;5.10;4.70;;;19.60;99.90;;;;;;4916929;29;20427;-93
2021/10/20 01:20:20;;;;;;;4.33;4.03;;;18.40;99.90;;;;;;4917003;29;20464;-93
2021/10/20 01:22:53;;;;;;;6.53;4.60;;;15.60;99.70;;;;;;4919199;29;20436;-92
2021/10/20 01:25:20;;;;;;;4.40;4.20;;;;;;;;;;4917004;29;20512;-92
2021/10/20 01:27:47;;;;;;;4.70;4.40;;;15.90;98.40;;;;;;4916184;29;20484;-92
2021/10/20 01:30:16;;;;;;;4.20;4.00;;;18.80;99.90;;;;;;4916339;29;20432;-92
2021/10/20 01:32:43;;;;;;;4.77;4.67;;;;;;;;;;4917756;29;20428;-92
2021/10/20 01:35:34;;;;;;;4.07;3.87;;;15.90;98.10;;;;;;4917534;29;20456;-91
2021/10/20 01:38:02;;;;;;;4.97;4.67;;;17.20;99.20;;;;;;4917101;29;20444;-92
2021/10/20 01:40:31;;;;;;;3.30;3.20;;;16.00;98.00;;;;;;4916562;29;20472;-91
2021/10/20 01:42:57;;;;;;;4.00;3.90;;;15.90;97.90;;;;;;4916385;29;20421;-91
2021/10/20 01:45:36;;;;;;;3.97;3.77;;;17.50;99.90;;;;;;4917154;29;20418;-92
2021/10/20 01:48:03;;;;;;;3.90;3.70;;;17.30;98.70;;;;;;4917463;29;20219;-91
2021/10/20 01:50:28;;;;;;;3.90;3.70;;;16.10;99.90;;;;;;4916638;29;20459;-92
2021/10/20 01:53:03;;;;;;;4.83;4.00;;;18.00;99.90;;;;;;4914317;29;20424;-92
2021/10/20 01:55:30;;;;;;;3.90;3.80;;;16.10;98.80;;;;;;4912952;29;20416;-91
2021/10/20 01:57:57;;;;;;;4.00;3.77;;;17.10;98.30;;;;;;4917493;29;20492;-91
2021/10/20 02:00:23;;;;;;;4.47;4.17;;;;;;;;;;4916780;29;20480;-91
2021/10/20 02:02:49;;;;;;;4.03;3.83;;;15.90;97.10;;;;;;4915932;29;20421;-91
2021/10/20 02:05:15;;;;;;;4.10;3.90;;;14.10;98.80;;;;;;4915536;29;20612;-93
2021/10/20 02:07:45;;;;;;;4.27;4.17;;;17.70;99.90;;;;;;4915838;29;20184;-91
2021/10/20 02:10:16;;;;;;;4.83;4.50;;;17.30;99.50;;;;;;4899609;29;20528;-91
2021/10/20 02:12:43;;;;;;;5.03;4.70;;;15.80;97.60;;;;;;4916795;29;20417;-91
2021/10/20 02:15:15;;;;;;;3.60;3.50;;;16.10;99.90;;;;;;4915044;29;20427;-92
2021/10/20 02:17:42;;;;;;;4.03;3.90;;;;;;;;;;4909671;29;20421;-91
2021/10/20 02:20:13;;;;;;;4.97;4.50;;;15.70;97.90;;;;;;4914642;29;20473;-93
2021/10/20 02:22:40;;;;;;;5.00;4.70;;;15.60;98.00;;;;;;4916208;29;20413;-90
2021/10/20 02:25:07;;;;;;;4.83;4.53;;;17.10;99.80;;;;;;4923219;29;20469;-91
2021/10/20 02:27:35;;;;;;;4.73;4.40;;;;;;;;;;4924244;29;20525;-92
2021/10/20 02:30:07;;;;;;;5.60;5.23;;;15.70;99.90;;;;;;4922378;29;20429;-92
2021/10/20 02:32:33;;;;;;;4.63;4.43;;;15.50;99.40;;;;;;4920414;29;20414;-91
2021/10/20 02:35:04;;;;;;;5.07;4.37;;;15.10;99.90;;;;;;4913774;29;20420;-91
2021/10/20 02:37:37;;;;;;;4.13;4.00;;;17.30;99.90;;;;;;4914625;29;20184;-92
2021/10/20 02:40:23;;;;;;;4.40;4.30;;;15.80;99.90;;;;;;4913399;29;20477;-91
2021/10/20 02:43:00;;;;;;;4.17;4.07;;;14.80;99.90;;;;;;4915426;29;20465;-93
2021/10/20 02:45:29;;;;;;;4.63;4.40;;;14.10;99.60;;;;;;4915125;29;20267;-90
2021/10/20 02:47:59;;;;;;;4.87;4.73;;;16.20;99.50;;;;;;4914482;29;20429;-93
2021/10/20 02:50:28;;;;;;;3.90;3.80;;;;;;;;;;4916944;29;20444;-90
2021/10/20 02:52:55;;;;;;;4.83;4.73;;;;;;;;;;4921699;29;20425;-92
2021/10/20 02:55:21;;;;;;;4.73;4.57;;;;;;;;;;4913812;29;20517;-93
2021/10/20 02:57:48;;;;;;;4.83;4.63;;;15.70;97.90;;;;;;4917563;29;20409;-93
2021/10/20 03:00:16;;;;;;;4.90;4.60;;;14.10;98.10;;;;;;4915958;29;20476;-93
2021/10/20 03:02:42;;;;;;;4.63;4.43;;;15.70;99.90;;;;;;4898241;29;20425;-93
2021/10/20 03:05:17;;;;;;;4.87;4.60;;;14.80;98.80;;;;;;4894977;29;20433;-92
2021/10/20 03:07:48;;;;;;;5.33;4.80;;;15.50;99.40;;;;;;4911193;29;20445;-92
2021/10/20 03:10:14;;;;;;;4.90;4.67;;;;;;;;;;4914851;29;20421;-92
2021/10/20 03:12:45;;;;;;;5.87;5.20;;;16.20;99.00;;;;;;4917085;29;20420;-92
2021/10/20 03:15:15;;;;;;;4.63;4.43;;;15.70;98.20;;;;;;4916078;29;20437;-92
2021/10/20 03:17:41;;;;;;;5.03;4.80;;;17.00;99.20;;;;;;4900608;29;20440;-93
2021/10/20 03:20:09;;;;;;;5.00;4.70;;;15.70;98.30;;;;;;4913603;29;20476;-92
2021/10/20 03:22:45;;;;;;;5.60;5.30;;;15.60;98.60;;;;;;4914350;29;20425;-92
2021/10/20 03:25:18;;;;;;;5.33;5.03;;;17.30;99.90;;;;;;4916257;29;20483;-92
2021/10/20 03:27:55;;;;;;;4.67;4.30;;;15.60;99.20;;;;;;4915027;29;20448;-92
2021/10/20 03:30:22;;;;;;;4.60;4.40;;;17.30;99.90;;;;;;4916756;29;20437;-92
2021/10/20 03:32:49;;;;;;;4.90;4.53;;;18.90;99.90;;;;;;4914096;29;20517;-93
2021/10/20 03:35:17;;;;;;;5.80;5.40;;;16.20;99.90;;;;;;4898913;29;20514;-92
2021/10/20 03:37:51;;;;;;;6.00;5.50;;;14.40;99.20;;;;;;4914210;29;20409;-92
2021/10/20 03:40:17;;;;;;;4.43;4.33;;;15.90;99.90;;;;;;4908144;29;20476;-91
2021/10/20 03:42:44;;;;;;;5.13;4.83;;;16.90;99.90;;;;;;4913507;29;20425;-91
2021/10/20 03:45:16;;;;;;;4.63;4.43;;;20.30;99.90;;;;;;4882671;29;20192;-91
2021/10/20 03:47:46;;;;;;;4.60;4.40;;;18.70;99.90;;;;;;4916258;29;20409;-91
2021/10/20 03:50:12;;;;;;;4.63;4.40;;;;;;;;;;4915563;29;20412;-91
2021/10/20 03:52:38;;;;;;;4.83;4.67;;;;;;;;;;4912295;29;20533;-91
2021/10/20 03:55:06;;;;;;;4.13;4.03;;;15.60;98.50;;;;;;4916022;29;20456;-90
2021/10/20 03:57:40;;;;;;;3.97;3.77;;;16.40;99.90;;;;;;4909571;29;20433;-93
2021/10/20 04:00:11;;;;;;;5.60;4.90;;;15.60;99.90;;;;;;4915490;29;20634;-92
2021/10/20 04:02:43;;;;;;;4.47;4.27;;;15.80;99.70;;;;;;4915978;29;20512;-90
2021/10/20 04:05:17;;;;;;;4.80;4.60;;;13.90;99.50;;;;;;4912759;29;20436;-90
2021/10/20 04:07:54;;;;;;;;;;;;;;;;;;;;;
2021/10/20 04:10:26;;;;;;;3.90;3.70;;;15.50;98.80;;;;;;4917978;29;20480;-90
2021/10/20 04:12:55;;;;;;;4.80;4.60;;;15.50;98.70;;;;;;4913179;29;20450;-89
2021/10/20 04:15:27;;;;;;;4.83;4.43;;;15.30;99.40;;;;;;4914910;29;20417;-93
2021/10/20 04:17:55;;;;;;;4.30;4.10;;;;;;;;;;4913744;29;20462;-91
2021/10/20 04:20:25;;;;;;;4.03;3.83;;;15.50;98.90;;;;;;4913891;29;20503;-91
2021/10/20 04:22:53;;;;;;;4.40;4.23;;;17.40;99.90;;;;;;4916544;29;20427;-90
2021/10/20 04:25:20;;;;;;;5.00;4.60;;;17.60;99.90;;;;;;4910916;29;20499;-91
2021/10/20 04:27:47;;;;;;;4.93;4.63;;;15.40;99.10;;;;;;4907816;29;20421;-89
2021/10/20 04:30:17;;;;;;;3.93;3.73;;;14.80;99.90;;;;;;4911151;29;20456;-93
2021/10/20 04:32:43;;;;;;;4.73;4.53;;;;;;;;;;4906268;29;20428;-92
2021/10/20 04:35:10;;;;;;;5.20;5.00;;;15.30;99.50;;;;;;4909897;29;20409;-90
2021/10/20 04:37:36;;;;;;;5.27;5.00;;;;;;;;;;4908520;29;20523;-91
2021/10/20 04:40:03;;;;;;;4.30;4.20;;;15.30;99.30;;;;;;4910391;29;20487;-91
2021/10/20 04:42:30;;;;;;;4.57;4.20;;;15.50;99.90;;;;;;4912066;29;20428;-93
2021/10/20 04:45:12;;;;;;;4.57;4.37;;;18.50;99.90;;;;;;4915320;29;20405;-91
2021/10/20 04:50:19;;;;;;;4.70;4.60;;;15.20;99.90;;;;;;5133921;23;20495;-90
2021/10/20 04:52:45;;;;;;;4.37;4.07;;;;;;;;;;4885449;29;20452;-93
2021/10/20 04:55:24;;;;;;;4.73;4.27;;;15.20;99.30;;;;;;4916306;29;20413;-91
2021/10/20 04:57:55;;;;;;;4.77;4.47;;;15.40;99.80;;;;;;4911321;29;20412;-92
2021/10/20 05:00:25;;;;;;;4.20;4.10;;;15.60;99.90;;;;;;4914371;29;20456;-92
2021/10/20 05:02:57;;;;;;;4.83;4.53;;;15.50;99.90;;;;;;4911607;29;20481;-92
2021/10/20 05:05:28;;;;;;;4.40;4.20;;;16.60;99.90;;;;;;4906689;29;20433;-91
2021/10/20 05:08:00;;;;;;;5.00;4.73;;;15.10;99.90;;;;;;4911491;29;20433;-92
2021/10/20 05:10:27;;;;;;;9.60;6.33;;;15.20;99.50;;;;;;4908754;29;20780;-91
2021/10/20 05:12:56;;;;;;;5.10;4.80;;;16.80;99.90;;;;;;4910291;29;20504;-91
2021/10/20 05:15:22;;;;;;;4.40;4.30;;;;;;;;;;4913367;29;20461;-92
2021/10/20 05:17:48;;;;;;;4.90;4.60;;;15.20;99.30;;;;;;4908658;29;20429;-89
2021/10/20 05:20:16;;;;;;;4.77;4.50;;;15.20;99.50;;;;;;4913633;29;20472;-92
2021/10/20 05:22:43;;;;;;;4.90;4.60;;;;;;;;;;4910407;29;20413;-92
2021/10/20 05:25:24;;;;;;;5.10;4.83;;;15.30;99.30;;;;;;4907073;29;20474;-90
2021/10/20 05:28:05;;;;;;;5.20;4.90;;;20.70;99.90;;;;;;4911169;29;20488;-90
2021/10/20 05:30:35;;;;;;;5.27;5.03;;;16.20;99.90;;;;;;4913053;29;20534;-92
2021/10/20 05:33:01;;;;;;;6.10;5.70;;;;;;;;;;4910368;29;20412;-91
2021/10/20 05:35:29;;;;;;;5.63;5.23;;;15.40;99.50;;;;;;4907968;29;20433;-90
2021/10/20 05:37:56;;;;;;;4.83;4.60;;;17.90;99.90;;;;;;4911255;29;20508;-92
2021/10/20 05:40:23;;;;;;;4.47;4.27;;;15.30;99.30;;;;;;4912264;29;20456;-90
2021/10/20 05:42:49;;;;;;;5.50;5.20;;;;;;;;;;4913084;29;20464;-88
2021/10/20 05:45:15;;;;;;;5.90;5.60;;;15.30;99.30;;;;;;4911244;29;20409;-92
2021/10/20 05:47:42;;;;;;;5.40;5.20;;;;;;;;;;4910381;29;20424;-92
2021/10/20 05:50:11;;;;;;;5.83;5.50;;;15.30;99.90;;;;;;4912185;29;20421;-91
2021/10/20 05:52:45;;;;;;;5.30;4.97;;;15.30;99.90;;;;;;4909168;29;20436;-92
2021/10/20 05:55:11;;;;;;;5.13;4.90;;;16.40;99.90;;;;;;4909943;29;20516;-92
2021/10/20 05:57:38;;;;;;;4.97;4.80;;;;;;;;;;4915149;29;20428;-89
2021/10/20 06:00:11;;;;;;;12.43;5.50;;;15.50;99.10;;;;;;4914437;29;20468;-90
2021/10/20 06:02:40;;;;;;;4.90;4.70;;;15.50;99.90;;;;;;4917865;29;20465;-90
2021/10/20 06:05:10;;;;;;;4.60;4.37;;;17.00;99.90;;;;;;4900204;29;20496;-89
2021/10/20 06:07:43;;;;;;;5.57;5.17;;;17.60;99.90;;;;;;4913605;29;20455;-91
2021/10/20 06:10:11;;;;;;;6.90;6.33;;;16.30;99.90;;;;;;4912734;29;20432;-91
2021/10/20 06:12:37;;;;;;;4.55;4.40;;;;;;;;;;4571706;29;10001011;-91
2021/10/20 06:15:06;;;;;;;5.27;4.97;;;15.70;98.40;;;;;;4909618;29;20439;-92
2021/10/20 06:17:34;;;;;;;4.70;4.30;;;;;;;;;;4893177;29;20917;-88
2021/10/20 06:20:10;;;;;;;4.50;4.20;;;15.70;98.20;;;;;;4910235;29;20496;-92
2021/10/20 06:22:41;;;;;;;6.87;4.97;;;16.10;98.50;;;;;;4892215;29;20429;-91
2021/10/20 06:25:19;;;;;;;6.10;3.80;;;15.40;99.50;;;;;;4891867;29;20444;-91
2021/10/20 06:27:45;;;;;;;5.80;5.40;;;;;;;;;;4910647;29;20576;-91
2021/10/20 06:30:17;;;;;;;5.03;4.73;;;15.80;97.80;;;;;;4911243;29;20428;-91
2021/10/20 06:32:45;;;;;;;4.60;4.30;;;;;;;;;;4910524;29;20429;-91
2021/10/20 06:35:35;;;;;;;;;;;;;;;;;;;;;
2021/10/20 06:38:01;;;;;;;4.70;4.37;;;;;;;;;;4915435;29;20452;-91
2021/10/20 06:40:29;;;;;;;4.90;4.50;;;;;;;;;;4915444;29;20468;-90
2021/10/20 06:42:55;;;;;;;4.90;4.63;;;15.90;98.20;;;;;;4913643;29;20425;-90
2021/10/20 06:45:24;;;;;;;4.93;4.70;;;15.80;99.90;;;;;;4913649;29;20460;-90
2021/10/20 06:47:50;;;;;;;4.80;4.50;;;;;;;;;;4915129;29;20425;-90
2021/10/20 06:50:18;;;;;;;5.50;5.10;;;;;;;;;;4908356;29;20420;-89
2021/10/20 06:52:46;;;;;;;6.57;6.17;;;15.80;97.90;;;;;;4908967;29;20426;-91
2021/10/20 06:55:15;;;;;;;5.53;5.23;;;15.80;99.00;;;;;;4908295;29;20421;-93
2021/10/20 06:57:41;;;;;;;4.80;4.43;;;15.50;99.90;;;;;;4903987;29;20409;-89
2021/10/20 07:00:11;;;;;;;4.60;4.30;;;17.60;99.90;;;;;;4905232;29;20473;-91
2021/10/20 07:02:39;;;;;;;5.00;4.80;;;16.40;99.70;;;;;;4911188;29;20435;-89
2021/10/20 07:05:06;;;;;;;4.57;4.20;;;16.30;99.90;;;;;;4912315;29;20405;-93
2021/10/20 07:07:36;;;;;;;5.63;5.33;;;16.10;97.40;;;;;;4912878;29;20536;-92
2021/10/20 07:10:06;;;;;;;5.50;5.10;;;16.20;97.80;;;;;;4908968;29;20504;-92
2021/10/20 07:12:35;;;;;;;7.53;7.00;;;;;;;;;;4910373;29;20484;-91
2021/10/20 07:15:04;;;;;;;4.70;4.40;;;;;;;;;;4907466;29;20580;-88
2021/10/20 07:17:32;;;;;;;5.60;5.40;;;;;;;;;;4909802;29;20432;-87
2021/10/20 07:19:58;;;;;;;5.70;5.30;;;;;;;;;;4911412;29;20515;-90
2021/10/20 07:22:27;;;;;;;4.80;4.70;;;16.30;97.00;;;;;;4912598;29;20417;-91
2021/10/20 07:24:59;;;;;;;5.60;5.30;;;16.70;97.70;;;;;;4914544;29;20409;-93
2021/10/20 07:27:29;;;;;;;6.13;5.57;;;18.70;99.90;;;;;;4915408;29;20424;-93
2021/10/20 07:29:57;;;;;;;6.50;6.00;;;;;;;;;;4911322;29;20496;-90
2021/10/20 07:32:33;;;;;;;5.93;5.50;;;16.10;97.60;;;;;;4912791;29;20429;-90
2021/10/20 07:35:00;;;;;;;6.47;5.87;;;;;;;;;;4912603;29;20417;-89
2021/10/20 07:37:26;;;;;;;5.80;5.50;;;;;;;;;;4910795;29;20417;-91
2021/10/20 07:39:52;;;;;;;5.03;4.83;;;;;;;;;;4912792;29;20469;-89
2021/10/20 07:42:22;;;;;;;5.97;5.47;;;16.20;98.00;;;;;;4913424;29;20488;-91
2021/10/20 07:44:52;;;;;;;5.00;4.80;;;;;;;;;;4913589;29;20425;-91
2021/10/20 07:47:24;;;;;;;5.87;5.47;;;;;;;;;;4913645;29;20421;-91
2021/10/20 07:49:52;;;;;;;5.53;5.10;;;16.20;98.20;;;;;;4911029;29;20421;-91
2021/10/20 07:52:24;;;;;;;5.63;5.23;;;16.50;99.80;;;;;;4911466;29;20469;-89
2021/10/20 07:54:50;;;;;;;5.13;4.67;;;;;;;;;;4912195;29;20433;-90
2021/10/20 07:57:16;;;;;;;6.53;5.93;;;16.20;98.30;;;;;;4913599;29;20417;-88
2021/10/20 07:59:44;;;;;;;5.20;4.90;;;18.00;99.90;;;;;;4910663;29;20532;-90
2021/10/20 08:02:15;;;;;;;5.90;5.60;;;17.10;99.00;;;;;;4912863;29;20184;-91
2021/10/20 08:04:51;;;;;;;5.70;5.20;;;16.70;99.80;;;;;;4897215;29;20438;-90
2021/10/20 08:07:23;;;;;;;5.83;5.53;;;16.40;99.90;;;;;;4892611;29;20422;-91
2021/10/20 08:10:07;;;;;;;5.70;5.27;;;16.40;99.90;;;;;;4878547;29;20426;-92
2021/10/20 08:12:32;;;;;;;5.63;5.33;;;17.70;99.90;;;;;;4892883;29;20433;-90
2021/10/20 08:15:02;;;;;;;4.60;4.30;;;16.70;99.90;;;;;;4892666;29;20505;-90
2021/10/20 08:17:28;;;;;;;5.53;5.13;;;;;;;;;;4878679;29;20185;-90
2021/10/20 08:20:21;;;;;;;6.60;6.20;;;16.60;98.70;;;;;;4893708;29;20566;-91
2021/10/20 08:22:48;;;;;;;5.53;5.33;;;15.70;99.50;;;;;;4876859;29;20426;-91
2021/10/20 08:25:17;;;;;;;4.70;4.50;;;16.50;99.40;;;;;;4870066;29;20998;-85
2021/10/20 08:27:43;;;;;;;5.10;4.77;;;;;;;;;;4860785;29;20426;-87
2021/10/20 08:30:16;;;;;;;6.50;6.10;;;16.60;98.60;;;;;;4880887;29;20952;-87
2021/10/20 08:32:58;;;;;;;4.77;4.57;;;16.70;98.70;;;;;;4905913;29;20423;-86
2021/10/20 08:35:23;;;;;;;5.60;5.30;;;16.80;99.20;;;;;;4909369;29;20521;-88
2021/10/20 08:38:03;;;;;;;6.40;6.00;;;16.70;98.60;;;;;;4907933;29;20928;-89
2021/10/20 08:40:38;;;;;;;6.47;5.90;;;16.80;98.60;;;;;;4880720;29;20476;-88
2021/10/20 08:43:07;;;;;;;5.13;4.93;;;18.80;99.90;;;;;;4899826;29;20614;-87
2021/10/20 08:45:32;;;;;;;6.17;5.90;;;17.80;99.90;;;;;;4882708;29;20447;-87
2021/10/20 08:47:59;;;;;;;5.90;5.57;;;;;;;;;;4901954;29;20889;-88
2021/10/20 08:50:27;;;;;;;6.17;5.70;;;18.40;99.90;;;;;;4863559;29;1098339;-88
2021/10/20 08:52:53;;;;;;;6.00;5.60;;;18.30;95.60;;;;;;4881532;29;20442;-87
2021/10/20 08:55:20;;;;;;;5.53;5.23;;;18.50;94.70;;;;;;4870130;29;20463;-88
2021/10/20 08:57:48;;;;;;;6.20;5.60;;;17.40;93.30;;;;;;4902430;29;20176;-87
2021/10/20 09:00:15;;;;;;;6.40;6.03;;;20.40;94.00;;;;;;4902731;29;20980;-88
2021/10/20 09:02:41;;;;;;;19.10;5.10;;;19.00;94.60;;;;;;4902194;29;20450;-88
2021/10/20 09:05:09;;;;;;;6.30;5.80;;;17.20;93.70;;;;;;4890192;29;20434;-88
2021/10/20 09:07:37;;;;;;;6.33;5.73;;;16.10;93.00;;;;;;4866257;29;20434;-88
2021/10/20 09:10:05;;;;;;;6.53;6.13;;;17.20;94.30;;;;;;4865381;29;20485;-88
2021/10/20 09:12:37;;;;;;;12.77;6.80;;;19.90;96.50;;;;;;4881569;29;21031;-87
2021/10/20 09:15:04;;;;;;;6.37;5.73;;;19.70;96.70;;;;;;4864308;29;20422;-88
2021/10/20 09:17:45;;;;;;;5.63;5.20;;;18.30;96.20;;;;;;4882589;29;20418;-88
2021/10/20 09:20:18;;;;;;;5.90;5.63;;;18.20;97.30;;;;;;4865945;29;20488;-88
2021/10/20 09:22:57;;;;;;;5.07;4.87;;;16.40;95.30;;;;;;4880702;29;20926;-87
2021/10/20 09:25:33;;;;;;;6.27;5.57;;;17.60;96.50;;;;;;4882373;29;20426;-89
2021/10/20 09:27:59;;;;;;;4.80;4.67;;;19.90;98.60;;;;;;4888102;29;20410;-88
2021/10/20 09:30:29;;;;;;;3.97;3.67;;;17.30;96.50;;;;;;4883666;29;20490;-89
2021/10/20 09:32:59;;;;;;;6.37;5.97;;;18.40;97.90;;;;;;4886931;29;20840;-89
2021/10/20 09:35:30;;;;;;;5.27;5.10;;;17.40;97.60;;;;;;4869955;29;20430;-88
2021/10/20 09:37:59;;;;;;;6.47;6.00;;;18.60;99.20;;;;;;4885188;29;20447;-89
2021/10/20 09:40:25;;;;;;;6.13;5.73;;;17.00;98.40;;;;;;4869463;29;20484;-88
2021/10/20 09:42:57;;;;;;;5.93;5.53;;;16.30;97.60;;;;;;4869727;29;20425;-89
2021/10/20 09:45:23;;;;;;;4.93;4.23;;;;;;;;;;4869436;29;20444;-87
2021/10/20 09:47:50;;;;;;;5.30;4.73;;;;;;;;;;4887793;29;20410;-90
2021/10/20 09:50:17;;;;;;;4.80;4.60;;;;;;;;;;4866949;29;20577;-87
2021/10/20 09:52:44;;;;;;;7.10;6.30;;;17.10;96.90;;;;;;4901789;29;20897;-88
2021/10/20 09:55:27;;;;;;;6.03;5.73;;;16.40;99.10;;;;;;4887707;29;20427;-89
2021/10/20 10:01:03;;;;;;;5.63;5.20;;;18.70;98.80;;;;;;4882715;29;20473;-88
2021/10/20 10:07:30;;;;;;;5.07;4.87;;;17.90;97.40;;;;;;4854531;29;20461;-88
2021/10/20 10:10:21;;;;;;;6.17;5.80;;;18.60;97.20;;;;;;4866675;29;21012;-88
2021/10/20 10:13:04;;;;;;;5.30;5.10;;;17.50;95.60;;;;;;4882275;29;20445;-88
2021/10/20 10:15:45;;;;;;;3.97;3.87;;;17.70;96.70;;;;;;4887422;29;20430;-87
2021/10/20 10:18:42;;;;;;;4.83;4.63;;;18.40;97.90;;;;;;4871266;29;20422;-89
2021/10/20 10:21:37;;;;;;;5.60;5.33;;;17.80;97.10;;;;;;4885954;29;20477;-86
2021/10/20 10:24:19;;;;;;;5.97;5.70;;;17.10;96.90;;;;;;4890694;29;20428;-88
2021/10/20 10:27:30;;;;;;;6.13;5.83;;;19.30;99.80;;;;;;4870165;29;20422;-87
2021/10/20 10:30:17;;;;;;;5.40;5.20;;;17.20;99.90;;;;;;4830604;29;20439;-88
2021/10/20 10:33:38;;;;;;;;;;;;;;;;;;;;;
2021/10/20 10:43:56;;;;;;;6.30;5.90;;;17.10;99.90;;;;;;4729618;30;20449;-92
2021/10/20 10:53:41;;;;;;;;;;;;;;;;;;;;;
2021/10/20 10:56:36;;;;;;;5.77;5.47;;;18.00;99.70;;;;;;4846925;29;20560;-92
2021/10/20 10:59:13;;;;;;;5.60;5.20;;;16.90;97.90;;;;;;4848466;29;20432;-91
2021/10/20 11:01:57;;;;;;;5.70;5.40;;;18.30;99.90;;;;;;4837583;29;20564;-91
2021/10/20 11:04:25;;;;;;;5.37;5.13;;;17.30;98.60;;;;;;4882628;29;20460;-90
2021/10/20 11:06:53;;;;;;;5.67;5.10;;;17.00;98.40;;;;;;4901396;29;20511;-91
2021/10/20 11:09:30;;;;;;;6.60;6.10;;;16.90;98.60;;;;;;4887306;29;20438;-91
2021/10/20 11:12:02;;;;;;;6.17;5.70;;;16.90;99.10;;;;;;4905487;29;20479;-89
2021/10/20 11:14:41;;;;;;;6.90;6.60;;;16.90;99.10;;;;;;4907556;29;20501;-92
2021/10/20 11:17:11;;;;;;;6.53;6.10;;;18.50;99.90;;;;;;4889839;29;20587;-94
2021/10/20 11:19:41;;;;;;;5.67;5.37;;;18.40;99.90;;;;;;4905567;29;20445;-93
2021/10/20 11:22:30;;;;;;;7.63;6.23;;;18.20;99.90;;;;;;4907262;29;20420;-90
2021/10/20 11:25:06;;;;;;;5.43;5.20;;;17.00;99.90;;;;;;4907325;29;20428;-90
2021/10/20 11:27:34;;;;;;;7.00;6.60;;;17.00;99.90;;;;;;4908355;29;20421;-92
2021/10/20 11:30:07;;;;;;;5.17;4.97;;;19.50;99.90;;;;;;4912320;29;20413;-91
2021/10/20 11:32:52;;;;;;;7.87;7.20;;;17.20;99.90;;;;;;4913098;29;20421;-93
2021/10/20 11:35:37;;;;;;;7.30;6.80;;;15.80;99.90;;;;;;4914901;29;20501;-94
2021/10/20 11:38:22;;;;;;;8.30;6.20;;;16.80;99.90;;;;;;4912813;29;20507;-91
2021/10/20 11:40:55;;;;;;;6.77;6.37;;;17.20;99.90;;;;;;4914066;29;20484;-92
2021/10/20 11:43:39;;;;;;;6.73;6.33;;;15.70;99.90;;;;;;4915790;29;20423;-89
2021/10/20 11:46:06;;;;;;;6.80;6.30;;;20.20;99.90;;;;;;4913969;29;20412;-90
2021/10/20 11:51:32;;;;;;;6.53;6.20;;;17.30;99.90;;;;;;4911941;29;20507;-93
2021/10/20 11:54:11;;;;;;;6.10;5.70;;;19.20;99.90;;;;;;4914158;29;20433;-91
2021/10/20 11:57:04;;;;;;;6.43;5.97;;;17.30;99.90;;;;;;4910597;29;20505;-90
2021/10/20 11:59:38;;;;;;;6.30;5.80;;;15.80;99.90;;;;;;4910663;29;20436;-91
2021/10/20 12:02:04;;;;;;;7.27;5.73;;;19.00;99.90;;;;;;4910135;29;20437;-88
2021/10/20 12:04:30;;;;;;;6.27;6.07;;;17.50;99.90;;;;;;4913904;29;20421;-89
2021/10/20 12:07:21;;;;;;;;;;;;;;;;;;;;;
2021/10/20 12:09:52;;;;;;;6.00;5.70;;;17.60;99.90;;;;;;4905541;29;20453;-93
2021/10/20 12:12:25;;;;;;;5.70;5.40;;;20.20;99.90;;;;;;4906597;29;20417;-93
2021/10/20 12:18:53;;;;;;;;;;;;;;;;;;;;;
2021/10/20 12:21:59;;;;;;;;;;;;;;;;;;;;;
2021/10/20 12:29:07;;;;;;;6.53;6.10;;;17.80;99.90;;;;;;4780796;30;20439;-93
2021/10/20 12:35:16;;;;;;;5.50;5.30;;;19.10;99.90;;;;;;4745661;30;20416;-92
2021/10/20 12:37:51;;;;;;;6.80;6.30;;;18.00;99.90;;;;;;4742898;30;20425;-91
2021/10/20 12:40:32;;;;;;;7.63;5.80;;;20.10;99.90;;;;;;4763283;30;20515;-93
2021/10/20 12:43:14;;;;;;;6.40;6.10;;;17.70;99.90;;;;;;4822173;29;20458;-93
2021/10/20 12:46:41;;;;;;;6.40;6.00;;;18.10;99.90;;;;;;4914134;29;20421;-92
2021/10/20 12:49:20;;;;;;;6.53;6.03;;;19.40;99.90;;;;;;4913567;29;20450;-92
2021/10/20 13:17:40;;;;;;;;;;;;;;;;;;;;;
2021/10/20 13:19:40;;;;;;;5.50;5.27;;;20.10;99.90;;;;;;4777291;30;20498;-92
2021/10/20 13:22:12;;;;;;;6.60;6.10;;;18.00;99.90;;;;;;4766102;30;20431;-90
2021/10/20 13:24:43;;;;;;;5.40;5.10;;;17.10;99.90;;;;;;4783167;30;20482;-92
2021/10/20 13:27:29;;;;;;;6.33;5.93;;;;;;;;;;4782827;30;20998;-94
2021/10/20 13:30:04;;;;;;;7.17;6.77;;;17.90;99.90;;;;;;4852433;29;20421;-93
2021/10/20 13:32:44;;;;;;;6.30;6.00;;;17.80;99.90;;;;;;4914536;29;20428;-91
2021/10/20 13:35:12;;;;;;;6.40;6.00;;;19.10;99.90;;;;;;4912847;29;20453;-90
2021/10/20 13:37:45;;;;;;;5.97;5.60;;;20.40;99.90;;;;;;4914826;29;20452;-92
2021/10/20 13:40:22;;;;;;;6.57;6.17;;;19.70;99.90;;;;;;4871700;29;20492;-92
2021/10/20 13:42:49;;;;;;;5.90;5.60;;;18.90;99.90;;;;;;4900348;29;20496;-90
2021/10/20 13:45:28;;;;;;;6.83;6.23;;;18.50;99.90;;;;;;4915742;29;20470;-94
2021/10/20 13:47:54;;;;;;;6.57;6.27;;;17.80;99.90;;;;;;4915609;29;20421;-93
2021/10/20 13:50:26;;;;;;;6.47;6.17;;;18.00;99.90;;;;;;4900722;29;20441;-89
2021/10/20 13:52:53;;;;;;;5.90;5.70;;;18.20;99.90;;;;;;4913775;29;20505;-91
2021/10/20 13:55:20;;;;;;;6.80;6.40;;;19.30;99.90;;;;;;4888813;29;20439;-89
2021/10/20 13:57:46;;;;;;;6.03;5.83;;;18.50;99.90;;;;;;4904531;29;20946;-89
2021/10/20 14:00:13;;;;;;;6.17;5.60;;;20.30;99.90;;;;;;4905811;29;20479;-89
2021/10/20 14:02:38;;;;;;;6.07;5.80;;;18.00;99.90;;;;;;4888466;29;20432;-88
2021/10/20 14:05:04;;;;;;;6.27;5.97;;;20.20;99.90;;;;;;4904164;29;20918;-88
2021/10/20 14:07:33;;;;;;;7.20;6.80;;;17.90;99.90;;;;;;4907326;29;20177;-94
2021/10/20 14:10:02;;;;;;;5.63;5.43;;;17.90;99.90;;;;;;4911011;29;20429;-88
2021/10/20 14:12:29;;;;;;;6.53;6.23;;;17.40;99.90;;;;;;4570997;29;10000339;-92
2021/10/20 14:14:57;;;;;;;6.50;6.17;;;16.50;99.90;;;;;;4893770;29;20234;-93
2021/10/20 14:17:25;;;;;;;6.87;6.57;;;18.70;99.90;;;;;;4910199;29;20429;-90
2021/10/20 14:19:53;;;;;;;6.13;5.73;;;18.50;99.90;;;;;;4897105;29;20535;-92
2021/10/20 14:22:34;;;;;;;7.07;6.47;;;20.60;99.90;;;;;;4898886;29;20472;-91
2021/10/20 14:25:17;;;;;;;6.07;5.77;;;18.10;99.90;;;;;;4900024;29;20497;-93
2021/10/20 14:27:49;;;;;;;5.87;5.67;;;19.00;99.90;;;;;;4898244;29;20423;-91
2021/10/20 14:30:31;;;;;;;;;;;;;;;;;;;;;
2021/10/20 14:32:59;;;;;;;7.27;6.87;;;19.00;99.90;;;;;;4914563;29;20440;-93
2021/10/20 14:35:35;;;;;;;;;;;;;;;;;;;;;
2021/10/20 14:38:07;;;;;;;6.10;5.80;;;17.80;99.90;;;;;;4913686;29;20488;-92
2021/10/20 14:40:36;;;;;;;6.07;5.53;;;17.70;99.90;;;;;;4896926;29;20469;-93
2021/10/20 14:43:06;;;;;;;6.27;5.97;;;19.80;99.90;;;;;;4895257;29;20875;-91